Time;durP1;ratioP1;P1;durP2;ratioP2;P2;SDS_P1;SDS_P2;PMS_P1;PMS_P2;Temp;Humidity;BMP_temperature;BMP_pressure;BME280_temperature;BME280_humidity;BME280_pressure;Samples;Min_cycle;Max_cycle;Signal;HPM_P1;HPM_P2
2023/12/28 00:00:37;;;;;;;;;4.25;4.25;;;;;11.73;67.27;100938.84;5006694;28;45432;-70
2023/12/28 00:03:02;;;;;;;;;5.25;3.50;;;;;11.72;67.61;100939.75;5035162;28;46973;-70
2023/12/28 00:05:28;;;;;;;;;4.75;3.75;;;;;11.69;67.38;100937.22;5017899;28;45296;-70
2023/12/28 00:07:57;;;;;;;;;5.75;4.00;;;;;11.68;67.61;100931.09;5021782;28;62334;-70
2023/12/28 00:10:27;;;;;;;;;5.75;5.00;;;;;11.65;67.79;100932.94;5022112;28;45744;-70
2023/12/28 00:12:52;;;;;;;;;6.00;4.75;;;;;11.64;68.18;100933.88;5036200;28;45250;-70
2023/12/28 00:15:18;;;;;;;;;6.00;4.00;;;;;11.63;68.52;100937.38;5043529;28;45373;-70
2023/12/28 00:17:43;;;;;;;;;7.00;5.25;;;;;11.62;67.81;100933.06;5039937;28;45512;-70
2023/12/28 00:20:09;;;;;;;;;3.00;3.00;;;;;11.60;68.20;100930.47;5039933;28;48620;-70
2023/12/28 00:22:37;;;;;;;;;7.00;5.25;;;;;11.59;68.35;100928.75;5023716;28;45477;-71
2023/12/28 00:25:03;;;;;;;;;4.25;4.00;;;;;11.58;68.31;100932.28;5020753;28;45361;-70
2023/12/28 00:27:28;;;;;;;;;6.75;3.50;;;;;11.58;68.28;100934.91;5038715;28;45274;-70
2023/12/28 00:29:53;;;;;;;;;6.75;6.00;;;;;11.57;68.35;100941.03;5022100;28;68529;-69
2023/12/28 00:32:19;;;;;;;;;5.00;2.25;;;;;11.56;68.55;100934.94;5022611;28;67057;-71
2023/12/28 00:34:44;;;;;;;;;5.75;4.00;;;;;11.56;68.79;100940.19;5038217;28;69881;-71
2023/12/28 00:37:09;;;;;;;;;6.50;3.75;;;;;11.56;68.89;100934.06;5026335;28;67744;-71
2023/12/28 00:39:35;;;;;;;;;9.75;6.00;;;;;11.57;69.33;100941.88;5032910;28;61528;-72
2023/12/28 00:42:00;;;;;;;;;5.00;4.00;;;;;11.55;69.07;100933.22;5040456;28;46359;-70
2023/12/28 00:44:26;;;;;;;;;6.50;3.75;;;;;11.55;69.14;100935.00;5033666;28;45188;-70
2023/12/28 00:46:51;;;;;;;;;5.75;5.75;;;;;11.52;69.17;100937.69;5040702;28;49690;-70
2023/12/28 00:49:16;;;;;;;;;7.75;5.00;;;;;11.53;69.21;100928.94;5040365;28;69534;-71
2023/12/28 00:51:42;;;;;;;;;6.25;4.00;;;;;11.54;69.40;100938.50;5035154;28;75563;-71
2023/12/28 00:54:07;;;;;;;;;6.75;4.25;;;;;11.52;69.08;100937.69;5037689;28;64324;-71
2023/12/28 00:56:32;;;;;;;;;4.50;4.50;;;;;11.53;69.05;100934.19;5040948;28;45435;-70
2023/12/28 00:58:58;;;;;;;;;6.00;5.00;;;;;11.53;68.95;100935.03;5036974;28;71870;-71
2023/12/28 01:01:23;;;;;;;;;5.00;4.00;;;;;11.52;69.22;100924.59;5038435;28;45333;-71
2023/12/28 01:03:48;;;;;;;;;2.00;2.00;;;;;11.52;69.49;100935.06;5040481;28;45277;-70
2023/12/28 01:06:14;;;;;;;;;4.75;4.25;;;;;11.53;69.71;100926.31;5040204;28;45327;-70
2023/12/28 01:08:39;;;;;;;;;4.50;4.00;;;;;11.51;69.69;100921.09;5039230;28;69090;-70
2023/12/28 01:11:04;;;;;;;;;3.50;3.50;;;;;11.52;69.48;100921.97;5015979;28;76572;-69
2023/12/28 01:13:30;;;;;;;;;7.00;5.00;;;;;11.54;69.74;100928.91;5038518;28;45211;-70
2023/12/28 01:15:56;;;;;;;;;4.00;4.00;;;;;11.52;69.43;100921.97;5037627;28;45317;-70
2023/12/28 01:18:21;;;;;;;;;7.00;4.25;;;;;11.55;69.93;100927.13;5033628;28;45497;-70
2023/12/28 01:20:47;;;;;;;;;4.00;3.25;;;;;11.51;70.25;100928.97;5022880;28;45497;-70
2023/12/28 01:23:12;;;;;;;;;5.75;4.75;;;;;11.51;69.67;100928.09;5039900;28;73160;-70
2023/12/28 01:25:37;;;;;;;;;6.75;5.00;;;;;11.51;70.10;100931.59;5006302;28;64498;-70
2023/12/28 01:28:04;;;;;;;;;5.50;5.50;;;;;11.50;69.73;100929.00;5020621;28;45595;-70
2023/12/28 01:30:29;;;;;;;;;6.00;5.25;;;;;11.49;69.76;100936.03;5038287;28;46285;-69
2023/12/28 01:32:55;;;;;;;;;6.25;4.75;;;;;11.48;70.28;100944.78;5037963;28;45403;-70
2023/12/28 01:35:20;;;;;;;;;7.00;5.50;;;;;11.48;70.46;100936.06;5032754;28;58606;-70
2023/12/28 01:37:45;;;;;;;;;6.00;4.00;;;;;11.48;70.58;100925.59;5022434;28;66492;-70
2023/12/28 01:40:11;;;;;;;;;6.75;5.00;;;;;11.46;70.25;100924.75;5026087;28;52936;-70
2023/12/28 01:42:37;;;;;;;;;5.25;4.75;;;;;11.46;70.65;100930.84;5040515;28;45376;-70
2023/12/28 01:45:03;;;;;;;;;7.50;6.00;;;;;11.45;70.94;100937.00;5040217;28;45269;-70
2023/12/28 01:47:29;;;;;;;;;7.50;4.00;;;;;11.45;70.65;100942.22;5040621;28;45270;-70
2023/12/28 01:49:54;;;;;;;;;6.50;4.25;;;;;11.44;70.69;100948.38;5034952;28;63225;-70
2023/12/28 01:52:20;;;;;;;;;5.50;4.00;;;;;11.46;70.89;100957.06;5039672;28;45265;-70
2023/12/28 01:54:46;;;;;;;;;7.75;5.75;;;;;11.45;70.72;100960.56;5019138;28;58530;-70
2023/12/28 01:57:11;;;;;;;;;8.00;5.00;;;;;11.45;71.18;100964.97;5019069;28;45607;-70
2023/12/28 01:59:37;;;;;;;;;6.25;5.00;;;;;11.44;71.00;100965.84;5035974;28;46018;-70
2023/12/28 02:02:03;;;;;;;;;4.75;4.75;;;;;11.44;71.19;100966.72;5019812;28;46916;-70
2023/12/28 02:04:28;;;;;;;;;6.00;4.75;;;;;11.45;71.10;100972.81;5039706;28;45407;-70
2023/12/28 02:06:59;;;;;;;;;8.00;4.00;;;;;11.44;71.19;100978.94;5021929;28;45358;-70
2023/12/28 02:09:25;;;;;;;;;5.75;5.75;;;;;11.44;71.40;100979.84;5037416;28;46436;-70
2023/12/28 02:11:50;;;;;;;;;5.00;4.50;;;;;11.43;71.23;100975.47;5039987;28;45385;-70
2023/12/28 02:14:16;;;;;;;;;5.00;5.00;;;;;11.43;71.43;100985.97;5018404;28;45382;-70
2023/12/28 02:16:46;;;;;;;;;6.00;5.25;;;;;11.42;71.72;100979.03;5029408;28;71702;-70
2023/12/28 02:19:30;;;;;;;;;7.00;4.25;;;;;11.40;72.03;100976.44;5031328;28;45435;-71
2023/12/28 02:21:55;;;;;;;;;5.00;4.00;;;;;11.39;71.81;100981.72;5008846;28;45314;-69
2023/12/28 02:24:21;;;;;;;;;3.75;3.75;;;;;11.39;72.60;100981.72;5012424;28;61877;-70
2023/12/28 02:26:46;;;;;;;;;6.00;4.25;;;;;11.37;72.80;100981.75;5032352;28;72021;-69
2023/12/28 02:29:11;;;;;;;;;5.00;4.50;;;;;11.36;72.62;100985.25;5033488;28;65566;-69
2023/12/28 02:31:41;;;;;;;;;5.00;4.00;;;;;11.35;72.52;100993.16;5019892;28;45431;-70
2023/12/28 02:34:12;;;;;;;;;5.00;4.25;;;;;11.33;73.04;100982.75;5017282;28;45750;-69
2023/12/28 02:36:41;;;;;;;;;6.50;4.50;;;;;11.34;73.04;100983.59;4989606;28;45401;-70
2023/12/28 02:39:07;;;;;;;;;4.25;4.00;;;;;11.32;73.54;100985.41;5023319;28;46298;-69
2023/12/28 02:41:33;;;;;;;;;5.25;3.50;;;;;11.32;73.07;100982.78;5021755;28;72184;-69
2023/12/28 02:43:58;;;;;;;;;5.25;4.50;;;;;11.31;73.29;100975.81;5039701;28;45337;-70
2023/12/28 02:46:24;;;;;;;;;4.00;2.00;;;;;11.30;73.73;100974.09;5036053;28;71290;-70
2023/12/28 02:48:49;;;;;;;;;3.00;3.00;;;;;11.31;73.82;100978.44;5022903;28;73326;-70
2023/12/28 02:51:16;;;;;;;;;6.50;3.50;;;;;11.33;73.42;100987.09;5019007;28;45499;-70
2023/12/28 02:53:41;;;;;;;;;3.00;3.00;;;;;11.33;73.85;100967.03;5039568;28;45223;-70
2023/12/28 02:56:07;;;;;;;;;7.50;3.00;;;;;11.34;73.77;100966.09;5037061;28;45370;-71
2023/12/28 02:58:32;;;;;;;;;7.75;4.00;;;;;11.34;74.05;100976.59;5016862;28;73450;-70
2023/12/28 03:00:57;;;;;;;;;5.75;3.25;;;;;11.33;73.93;100974.88;5033609;28;71245;-70
2023/12/28 03:03:22;;;;;;;;;5.25;3.00;;;;;11.35;74.32;100975.69;5036145;28;57371;-70
2023/12/28 03:05:48;;;;;;;;;8.25;4.75;;;;;11.35;73.84;100975.69;5036916;28;58834;-70
2023/12/28 03:08:13;;;;;;;;;11.00;3.00;;;;;11.35;74.21;100974.81;5035334;28;73161;-69
2023/12/28 03:10:39;;;;;;;;;4.50;3.75;;;;;11.34;74.00;100970.50;5037340;28;45250;-70
2023/12/28 03:13:04;;;;;;;;;4.25;3.75;;;;;11.33;74.28;100963.53;5037042;28;45183;-69
2023/12/28 03:15:30;;;;;;;;;5.75;4.75;;;;;11.33;73.90;100968.75;5034402;28;45175;-70
2023/12/28 03:17:55;;;;;;;;;4.75;4.00;;;;;11.35;74.19;100972.19;5037231;28;58956;-70
2023/12/28 03:20:20;;;;;;;;;3.25;3.00;;;;;11.34;74.11;100968.72;5033909;28;72943;-69
2023/12/28 03:22:45;;;;;;;;;6.00;3.00;;;;;11.33;74.18;100966.13;5039822;28;68568;-70
2023/12/28 03:25:11;;;;;;;;;4.00;3.75;;;;;11.33;73.69;100964.41;5033946;28;73076;-70
2023/12/28 03:27:36;;;;;;;;;4.25;3.00;;;;;11.32;74.17;100978.38;5039498;28;69068;-70
2023/12/28 03:30:01;;;;;;;;;3.50;3.25;;;;;11.31;74.18;100974.03;5036948;28;66083;-70
2023/12/28 03:32:27;;;;;;;;;4.25;4.00;;;;;11.33;74.56;100981.84;5031239;28;67476;-71
2023/12/28 03:34:52;;;;;;;;;5.25;4.00;;;;;11.30;74.47;100981.97;5014973;28;45686;-70
2023/12/28 03:37:17;;;;;;;;;5.75;4.25;;;;;11.29;74.19;100983.69;5017255;28;70390;-70
2023/12/28 03:39:43;;;;;;;;;2.00;2.00;;;;;11.29;74.29;100975.00;5028188;28;64382;-70
2023/12/28 03:42:09;;;;;;;;;5.00;3.25;;;;;11.27;74.70;100974.19;5039679;28;45481;-70
2023/12/28 03:44:34;;;;;;;;;4.00;4.00;;;;;11.27;74.25;100972.41;5021379;28;45715;-70
2023/12/28 03:47:00;;;;;;;;;4.50;2.75;;;;;11.25;74.91;100968.97;5039097;28;65641;-71
2023/12/28 03:49:25;;;;;;;;;3.00;3.00;;;;;11.26;75.12;100980.31;5038828;28;45455;-70
2023/12/28 03:51:50;;;;;;;;;5.00;4.00;;;;;11.24;74.39;100969.00;5040502;28;67298;-70
2023/12/28 03:54:17;;;;;;;;;6.25;4.00;;;;;11.22;74.61;100974.28;5041494;28;70622;-70
2023/12/28 03:56:43;;;;;;;;;4.00;4.00;;;;;11.18;74.61;100970.88;5021286;28;46417;-69
2023/12/28 03:59:09;;;;;;;;;4.25;4.00;;;;;11.19;74.46;100969.13;5041693;28;45238;-70
2023/12/28 04:01:34;;;;;;;;;4.00;4.00;;;;;11.18;74.87;100962.19;5040610;28;45456;-70
2023/12/28 04:04:00;;;;;;;;;6.50;3.75;;;;;11.16;74.79;100962.22;5038765;28;45398;-70
2023/12/28 04:06:25;;;;;;;;;5.00;3.25;;;;;11.14;74.97;100966.63;5033581;28;74031;-69
2023/12/28 04:08:50;;;;;;;;;5.25;5.00;;;;;11.11;74.68;100965.84;5017322;28;74374;-70
2023/12/28 04:11:16;;;;;;;;;7.25;6.00;;;;;11.09;74.98;100975.50;5040964;28;68177;-70
2023/12/28 04:13:41;;;;;;;;;3.75;3.75;;;;;11.07;74.76;100975.53;5038027;28;45358;-70
2023/12/28 04:16:06;;;;;;;;;5.25;3.75;;;;;11.06;74.57;100978.19;5033992;28;74803;-70
2023/12/28 04:18:32;;;;;;;;;8.00;3.00;;;;;11.01;74.96;100955.63;5039598;28;45322;-70
2023/12/28 04:20:58;;;;;;;;;4.25;3.00;;;;;11.05;75.28;100963.38;5020003;28;45463;-70
2023/12/28 04:23:23;;;;;;;;;4.00;3.50;;;;;11.05;75.18;100958.13;5035661;28;62944;-70
2023/12/28 04:25:48;;;;;;;;;7.00;3.00;;;;;11.04;75.15;100972.16;5019442;28;75533;-70
2023/12/28 04:28:14;;;;;;;;;4.50;4.00;;;;;11.03;75.33;100976.53;5038995;28;45337;-70
2023/12/28 04:30:40;;;;;;;;;4.00;4.00;;;;;11.02;74.76;100978.28;5038833;28;64829;-69
2023/12/28 04:33:05;;;;;;;;;4.00;2.00;;;;;11.02;75.17;100967.78;5023587;28;45500;-70
2023/12/28 04:35:30;;;;;;;;;2.50;2.00;;;;;11.02;75.62;100975.66;5013481;28;75120;-70
2023/12/28 04:37:56;;;;;;;;;4.00;4.00;;;;;10.98;75.24;100976.63;5003742;28;68424;-70
2023/12/28 04:40:21;;;;;;;;;7.75;4.00;;;;;10.98;75.38;100967.94;5018138;28;45551;-70
2023/12/28 04:42:46;;;;;;;;;6.25;3.50;;;;;10.98;75.38;100970.53;5028631;28;45601;-70
2023/12/28 04:45:12;;;;;;;;;5.25;3.00;;;;;10.98;75.01;100976.63;5017848;28;61845;-70
2023/12/28 04:47:37;;;;;;;;;7.00;5.00;;;;;10.99;75.21;100978.34;5028027;28;62966;-70
2023/12/28 04:50:06;;;;;;;;;3.75;3.50;;;;;10.98;75.37;100966.16;5017740;28;67656;-70
2023/12/28 04:52:31;;;;;;;;;5.75;3.25;;;;;10.98;75.31;100965.31;5020769;28;45439;-70
2023/12/28 04:54:57;;;;;;;;;6.25;4.00;;;;;10.97;75.27;100956.56;5018021;28;45377;-70
2023/12/28 04:57:27;;;;;;;;;7.25;3.75;;;;;10.97;75.11;100953.94;5017393;28;45381;-70
2023/12/28 04:59:53;;;;;;;;;6.25;3.50;;;;;10.98;75.42;100945.22;5017817;28;45285;-70
2023/12/28 05:02:18;;;;;;;;;4.75;3.00;;;;;10.96;75.41;100952.25;5020528;28;68693;-69
2023/12/28 05:04:43;;;;;;;;;5.00;4.00;;;;;10.97;75.32;100951.34;5018907;28;46079;-70
2023/12/28 05:07:09;;;;;;;;;4.25;3.25;;;;;10.96;75.14;100949.63;5020619;28;45385;-70
2023/12/28 05:09:35;;;;;;;;;6.75;3.00;;;;;10.97;75.21;100963.56;5001504;28;45291;-69
2023/12/28 05:12:00;;;;;;;;;5.00;3.00;;;;;10.97;75.29;100958.34;5016765;28;45238;-70
2023/12/28 05:14:26;;;;;;;;;5.50;4.00;;;;;10.97;75.44;100947.88;5019475;28;45445;-71
2023/12/28 05:16:51;;;;;;;;;3.75;3.00;;;;;10.95;75.56;100963.59;5019780;28;45480;-70
2023/12/28 05:19:16;;;;;;;;;5.00;3.75;;;;;10.96;75.32;100967.09;5015557;28;60175;-71
2023/12/28 05:21:41;;;;;;;;;5.50;3.25;;;;;10.94;75.26;100967.16;5018718;28;65996;-69
2023/12/28 05:24:07;;;;;;;;;6.00;4.25;;;;;10.93;75.16;100968.03;5012948;28;74469;-69
2023/12/28 05:26:32;;;;;;;;;3.50;3.25;;;;;10.92;75.46;100962.81;5018559;28;67664;-70
2023/12/28 05:28:58;;;;;;;;;4.00;3.00;;;;;10.91;75.17;100967.22;5019135;28;54248;-70
2023/12/28 05:31:23;;;;;;;;;7.50;3.75;;;;;10.89;75.17;100960.28;5019029;28;64210;-70
2023/12/28 05:33:48;;;;;;;;;4.50;4.00;;;;;10.89;75.46;100970.75;5017412;28;74579;-69
2023/12/28 05:36:13;;;;;;;;;5.00;4.25;;;;;10.86;75.75;100976.09;5021119;28;73244;-70
2023/12/28 05:38:39;;;;;;;;;8.75;5.00;;;;;10.82;75.41;100981.38;5020039;28;60667;-70
2023/12/28 05:41:04;;;;;;;;;7.25;3.50;;;;;10.81;75.50;100969.19;5030515;28;72964;-70
2023/12/28 05:43:29;;;;;;;;;6.50;4.00;;;;;10.79;75.90;100970.97;5040153;28;45891;-69
2023/12/28 05:45:55;;;;;;;;;7.00;4.00;;;;;10.78;76.13;100978.88;5037632;28;68869;-70
2023/12/28 05:48:20;;;;;;;;;2.50;2.50;;;;;10.75;75.89;100973.72;5038397;28;58203;-70
2023/12/28 05:50:46;;;;;;;;;4.25;3.00;;;;;10.73;76.11;100975.50;5039844;28;45479;-70
2023/12/28 05:53:13;;;;;;;;;8.75;4.75;;;;;10.73;75.99;100979.00;5036829;28;72915;-70
2023/12/28 05:55:43;;;;;;;;;6.00;3.50;;;;;10.73;76.28;100981.63;5022898;28;45354;-70
2023/12/28 05:58:08;;;;;;;;;5.25;5.00;;;;;10.72;76.26;100979.03;5036661;28;45505;-70
2023/12/28 06:00:34;;;;;;;;;2.25;2.25;;;;;10.71;76.09;100995.63;5021378;28;45361;-69
2023/12/28 06:03:01;;;;;;;;;4.50;3.00;;;;;10.70;76.15;100989.53;5039725;28;45599;-70
2023/12/28 06:05:26;;;;;;;;;4.50;3.25;;;;;10.70;76.28;100991.28;5013426;28;45275;-70
2023/12/28 06:07:52;;;;;;;;;5.75;4.50;;;;;10.69;76.24;101000.03;5036438;28;45375;-71
2023/12/28 06:10:17;;;;;;;;;6.50;3.75;;;;;10.67;76.72;101000.06;5039455;28;69414;-70
2023/12/28 06:12:42;;;;;;;;;3.75;3.00;;;;;10.66;76.64;101005.31;5033561;28;55107;-70
2023/12/28 06:15:08;;;;;;;;;3.50;3.50;;;;;10.64;76.69;101007.97;5028558;28;74723;-70
2023/12/28 06:17:33;;;;;;;;;6.25;3.00;;;;;10.63;76.62;101001.88;5035265;28;45407;-70
2023/12/28 06:19:59;;;;;;;;;6.25;3.50;;;;;10.62;76.76;100997.56;5021451;28;69982;-70
2023/12/28 06:22:27;;;;;;;;;4.50;3.00;;;;;10.62;76.53;100999.31;5034740;28;70775;-70
2023/12/28 06:24:53;;;;;;;;;7.50;3.00;;;;;10.63;76.82;100995.81;5027018;28;45505;-70
2023/12/28 06:27:18;;;;;;;;;7.50;6.00;;;;;10.60;76.62;100986.25;5031966;28;45341;-70
2023/12/28 06:29:43;;;;;;;;;5.75;3.00;;;;;10.60;76.82;100994.09;5036493;28;70675;-70
2023/12/28 06:32:09;;;;;;;;;4.75;3.00;;;;;10.61;76.95;100989.75;5015211;28;69103;-70
2023/12/28 06:34:34;;;;;;;;;9.50;4.00;;;;;10.61;76.60;100993.22;5017507;28;72153;-70
2023/12/28 06:37:01;;;;;;;;;6.00;3.00;;;;;10.62;76.65;100994.06;5025829;28;69285;-69
2023/12/28 06:39:26;;;;;;;;;5.25;1.75;;;;;10.61;77.00;100995.84;5028895;28;45552;-70
2023/12/28 06:41:52;;;;;;;;;7.50;3.00;;;;;10.61;76.85;101006.31;5035848;28;72075;-69
2023/12/28 06:44:17;;;;;;;;;4.00;2.50;;;;;10.62;77.01;101002.81;5040116;28;45210;-69
2023/12/28 06:46:42;;;;;;;;;8.50;3.00;;;;;10.63;76.86;100998.41;5036044;28;45718;-70
2023/12/28 06:49:07;;;;;;;;;9.25;3.75;;;;;10.61;76.99;100998.44;5038439;28;60309;-71
2023/12/28 06:51:33;;;;;;;;;6.50;4.00;;;;;10.62;77.18;101000.19;5039245;28;46391;-71
2023/12/28 06:53:58;;;;;;;;;6.25;3.25;;;;;10.62;76.86;101005.41;5017554;28;71049;-70
2023/12/28 06:56:24;;;;;;;;;8.00;3.50;;;;;10.60;77.29;101001.09;5037116;28;45456;-70
2023/12/28 06:58:49;;;;;;;;;2.50;2.00;;;;;10.59;76.91;101002.88;5036209;28;45465;-70
2023/12/28 07:01:15;;;;;;;;;4.25;3.00;;;;;10.59;76.97;101015.94;5035055;28;61639;-70
2023/12/28 07:03:40;;;;;;;;;7.25;4.50;;;;;10.58;77.32;101006.38;5011201;28;45271;-70
2023/12/28 07:06:06;;;;;;;;;6.00;3.00;;;;;10.58;77.12;101021.22;5039361;28;45363;-70
2023/12/28 07:08:31;;;;;;;;;3.50;3.25;;;;;10.57;77.10;101022.09;5037032;28;45490;-71
2023/12/28 07:10:59;;;;;;;;;6.75;4.75;;;;;10.56;77.35;101020.41;5035426;28;45344;-69
2023/12/28 07:13:25;;;;;;;;;8.25;4.75;;;;;10.57;77.29;101029.94;5033435;28;45263;-71
2023/12/28 07:15:51;;;;;;;;;3.50;3.00;;;;;10.55;77.76;101035.25;5007917;28;45344;-70
2023/12/28 07:18:16;;;;;;;;;8.00;3.25;;;;;10.58;77.74;101037.78;5040577;28;45489;-70
2023/12/28 07:20:42;;;;;;;;;6.25;3.00;;;;;10.55;78.23;101027.38;5025734;28;47463;-70
2023/12/28 07:23:08;;;;;;;;;4.75;3.50;;;;;10.62;78.06;101033.31;5020825;28;45167;-70
2023/12/28 07:25:34;;;;;;;;;4.75;3.00;;;;;10.63;77.68;101037.69;5020840;28;45223;-70
2023/12/28 07:27:59;;;;;;;;;11.00;6.75;;;;;10.65;77.50;101035.88;5040150;28;45567;-70
2023/12/28 07:30:24;;;;;;;;;6.75;4.00;;;;;10.71;77.88;101034.88;5039810;28;60685;-70
2023/12/28 07:32:50;;;;;;;;;7.75;4.25;;;;;10.74;77.88;101037.44;5041137;28;72205;-71
2023/12/28 07:35:15;;;;;;;;;6.00;4.75;;;;;10.78;77.36;101036.47;5039785;28;64347;-70
2023/12/28 07:37:40;;;;;;;;;6.75;4.00;;;;;10.81;77.25;101037.25;5028004;28;65993;-70
2023/12/28 07:40:06;;;;;;;;;7.75;5.00;;;;;10.87;77.41;101049.34;5035931;28;45443;-70
2023/12/28 07:42:32;;;;;;;;;6.00;4.25;;;;;10.91;77.07;101042.28;5042272;28;45863;-71
2023/12/28 07:44:57;;;;;;;;;7.00;4.00;;;;;10.97;77.24;101042.97;5040925;28;67325;-70
2023/12/28 07:47:22;;;;;;;;;8.50;4.25;;;;;11.00;76.89;101042.91;5037593;28;45404;-70
2023/12/28 07:49:48;;;;;;;;;6.00;4.75;;;;;11.05;76.87;101041.94;5036339;28;75698;-70
2023/12/28 07:52:13;;;;;;;;;9.00;5.75;;;;;11.07;76.56;101038.41;5024781;28;45376;-71
2023/12/28 07:54:38;;;;;;;;;4.50;4.00;;;;;11.04;76.35;101046.31;5023563;28;68032;-70
2023/12/28 07:57:04;;;;;;;;;6.00;4.50;;;;;11.01;76.47;101049.00;5023688;28;45881;-70
2023/12/28 07:59:29;;;;;;;;;9.50;5.00;;;;;10.97;76.26;101045.59;5041675;28;46235;-71
2023/12/28 08:01:55;;;;;;;;;9.25;4.00;;;;;10.95;76.88;101036.06;5017274;28;45536;-70
2023/12/28 08:04:20;;;;;;;;;6.00;6.00;;;;;10.91;76.61;101035.28;5023509;28;45340;-70
2023/12/28 08:06:46;;;;;;;;;8.75;4.25;;;;;10.89;76.98;101047.56;5037775;28;71506;-70
2023/12/28 08:09:11;;;;;;;;;4.00;3.00;;;;;10.89;76.92;101044.06;5020188;28;50792;-70
2023/12/28 08:11:37;;;;;;;;;7.00;5.25;;;;;10.87;77.25;101049.34;5041871;28;45425;-70
2023/12/28 08:14:02;;;;;;;;;10.75;7.00;;;;;10.86;77.00;101058.09;5034463;28;45340;-70
2023/12/28 08:16:27;;;;;;;;;6.00;4.75;;;;;10.87;77.35;101065.06;5040254;28;45258;-70
2023/12/28 08:18:53;;;;;;;;;10.50;6.00;;;;;10.87;77.23;101067.69;5037827;28;60878;-70
2023/12/28 08:21:18;;;;;;;;;9.75;4.50;;;;;10.93;77.48;101066.69;5037965;28;59923;-70
2023/12/28 08:23:44;;;;;;;;;7.50;4.25;;;;;10.98;77.06;101067.44;5039608;28;65696;-70
2023/12/28 08:26:09;;;;;;;;;5.00;4.00;;;;;11.02;77.15;101069.06;5037937;28;45219;-70
2023/12/28 08:28:35;;;;;;;;;4.75;3.75;;;;;11.05;77.03;101068.13;5039533;28;46245;-69
2023/12/28 08:31:00;;;;;;;;;6.00;3.00;;;;;11.05;76.86;101076.88;5036195;28;49787;-70
2023/12/28 08:33:26;;;;;;;;;4.75;3.00;;;;;11.04;77.01;101072.50;5039535;28;45309;-70
2023/12/28 08:35:51;;;;;;;;;9.75;4.00;;;;;11.03;77.08;101073.44;5033565;28;68408;-70
2023/12/28 08:38:16;;;;;;;;;5.75;4.25;;;;;11.05;76.67;101073.38;5029414;28;66605;-70
2023/12/28 08:40:43;;;;;;;;;7.50;3.75;;;;;11.05;76.87;101068.13;5023431;28;45451;-70
2023/12/28 08:43:09;;;;;;;;;5.25;3.50;;;;;11.05;76.81;101076.00;5038795;28;45372;-70
2023/12/28 08:45:35;;;;;;;;;6.75;4.00;;;;;11.05;76.40;101073.38;5022576;28;68739;-70
2023/12/28 08:48:01;;;;;;;;;5.75;4.00;;;;;11.04;76.61;101071.66;5020279;28;45567;-70
2023/12/28 08:50:26;;;;;;;;;7.00;4.00;;;;;11.05;76.57;101078.59;5037589;28;45419;-70
2023/12/28 08:52:51;;;;;;;;;6.50;3.50;;;;;11.05;76.44;101076.88;5036859;28;68598;-70
2023/12/28 08:55:16;;;;;;;;;2.25;2.25;;;;;11.06;76.54;101075.97;5038589;28;45519;-70
2023/12/28 08:57:42;;;;;;;;;4.50;2.75;;;;;11.07;76.52;101074.22;5037766;28;64915;-70
2023/12/28 09:00:08;;;;;;;;;4.25;2.25;;;;;11.09;76.54;101085.50;5041039;28;45257;-70
2023/12/28 09:02:33;;;;;;;;;4.50;3.00;;;;;11.13;76.55;101084.53;5022747;28;45280;-71
2023/12/28 09:04:58;;;;;;;;;8.00;3.25;;;;;11.19;76.20;101090.50;5040053;28;45493;-71
2023/12/28 09:07:24;;;;;;;;;3.25;3.00;;;;;11.26;76.11;101090.34;5039162;28;72480;-70
2023/12/28 09:09:50;;;;;;;;;3.50;2.00;;;;;11.35;76.23;101096.22;5039826;28;45210;-70
2023/12/28 09:12:15;;;;;;;;;3.50;1.50;;;;;11.41;76.02;101095.22;5038337;28;45163;-70
2023/12/28 09:14:40;;;;;;;;;3.75;2.00;;;;;11.46;75.37;101093.34;5036084;28;66107;-71
2023/12/28 09:17:06;;;;;;;;;5.75;3.00;;;;;11.53;75.37;101101.91;5022304;28;60784;-71
2023/12/28 09:19:31;;;;;;;;;3.00;3.00;;;;;11.58;74.94;101097.44;5030294;28;45420;-70
2023/12/28 09:21:56;;;;;;;;;3.00;2.25;;;;;11.58;74.77;101094.81;5015625;28;57064;-70
2023/12/28 09:24:22;;;;;;;;;6.00;3.75;;;;;11.67;75.01;101091.94;5020947;28;64603;-71
2023/12/28 09:26:47;;;;;;;;;5.75;3.00;;;;;11.77;74.45;101096.06;5018423;28;47049;-70
2023/12/28 09:29:13;;;;;;;;;5.50;3.00;;;;;11.88;74.32;101106.25;5019669;28;72024;-71
2023/12/28 09:31:39;;;;;;;;;3.50;3.00;;;;;11.93;73.94;101099.16;5035324;28;68604;-72
2023/12/28 09:34:04;;;;;;;;;3.50;2.00;;;;;11.96;73.42;101100.81;5036811;28;62393;-70
2023/12/28 09:36:30;;;;;;;;;4.50;3.00;;;;;12.01;73.18;101101.56;5048826;28;75527;-70
2023/12/28 09:38:55;;;;;;;;;4.00;4.00;;;;;12.05;73.39;101108.44;5015081;28;45370;-70
2023/12/28 09:41:22;;;;;;;;;3.00;2.50;;;;;12.08;73.02;101111.00;5040824;28;45293;-71
2023/12/28 09:43:54;;;;;;;;;6.50;2.25;;;;;12.08;72.40;101105.75;5020522;28;45428;-70
2023/12/28 09:46:21;;;;;;;;;5.50;3.25;;;;;12.11;72.66;101108.28;5020399;28;46451;-70
2023/12/28 09:48:46;;;;;;;;;7.00;3.25;;;;;12.18;72.49;101111.56;5022668;28;45177;-70
2023/12/28 09:51:12;;;;;;;;;5.00;3.00;;;;;12.23;72.14;101117.56;5037906;28;45265;-70
2023/12/28 09:53:37;;;;;;;;;5.00;4.25;;;;;12.21;74.41;101122.00;5040191;28;45385;-70
2023/12/28 09:56:04;;;;;;;;;4.00;3.25;;;;;12.20;72.36;101122.91;5019146;28;71159;-70
2023/12/28 09:58:32;;;;;;;;;7.00;5.25;;;;;12.22;72.56;101128.13;5039437;28;45764;-70
2023/12/28 10:00:59;;;;;;;;;9.50;4.00;;;;;12.24;72.05;101115.81;5037471;28;45373;-70
2023/12/28 10:03:24;;;;;;;;;2.50;2.50;;;;;12.24;72.06;101115.81;5020662;28;45492;-70
2023/12/28 10:05:50;;;;;;;;;4.50;4.50;;;;;12.23;71.85;101117.56;5040240;28;48277;-69
2023/12/28 10:08:15;;;;;;;;;3.25;3.00;;;;;12.23;72.33;101106.22;5046063;28;72189;-70
2023/12/28 10:10:41;;;;;;;;;5.50;4.00;;;;;12.28;72.10;101101.72;5011552;28;45322;-70
2023/12/28 10:13:07;;;;;;;;;5.50;3.75;;;;;12.27;71.53;101102.59;5041331;28;45598;-69
2023/12/28 10:15:33;;;;;;;;;6.00;3.50;;;;;12.23;71.68;101101.81;5040826;28;47463;-70
2023/12/28 10:17:59;;;;;;;;;5.00;4.00;;;;;12.22;71.95;101101.88;5018777;28;45774;-70
2023/12/28 10:20:28;;;;;;;;;6.25;4.00;;;;;12.20;72.09;101099.31;5040569;28;45578;-70
2023/12/28 10:22:54;;;;;;;;;5.25;4.50;;;;;12.21;71.83;101092.28;5042814;28;45432;-70
2023/12/28 10:25:19;;;;;;;;;6.00;5.00;;;;;12.22;71.67;101088.78;5030563;28;45456;-69
2023/12/28 10:27:44;;;;;;;;;6.00;3.25;;;;;12.24;71.60;101087.81;5057183;28;63861;-69
2023/12/28 10:30:10;;;;;;;;;8.00;4.00;;;;;12.27;71.41;101094.72;5038333;28;68072;-69
2023/12/28 10:32:39;;;;;;;;;5.00;3.50;;;;;12.29;70.60;101085.91;5058207;28;44722;-70
2023/12/28 10:35:05;;;;;;;;;5.50;4.75;;;;;12.29;71.08;101093.78;5038530;28;46669;-70
2023/12/28 10:37:31;;;;;;;;;3.00;3.00;;;;;12.31;71.05;101084.09;5032518;28;45413;-70
2023/12/28 10:39:59;;;;;;;;;5.25;3.75;;;;;12.33;70.68;101086.69;5017913;28;45315;-70
2023/12/28 10:42:32;;;;;;;;;6.50;4.00;;;;;12.35;70.80;101084.88;5039342;28;45470;-70
2023/12/28 10:45:05;;;;;;;;;9.75;5.75;;;;;12.39;70.26;101102.25;5024153;28;46495;-70
2023/12/28 10:47:37;;;;;;;;;8.00;4.25;;;;;12.42;69.97;101082.94;5018556;28;45321;-70
2023/12/28 10:50:07;;;;;;;;;4.75;4.75;;;;;12.50;70.39;101092.31;5012814;28;45321;-70
2023/12/28 10:52:33;;;;;;;;;6.00;3.75;;;;;12.60;70.16;101087.63;5039866;28;45353;-70
2023/12/28 10:55:19;;;;;;;;;5.75;3.25;;;;;12.72;69.36;101087.28;5016843;28;45346;-70
2023/12/28 10:58:03;;;;;;;;;4.00;4.00;;;;;12.79;68.81;101087.09;5011827;28;45263;-70
2023/12/28 11:00:31;;;;;;;;;8.00;5.50;;;;;12.82;68.64;101079.09;5021093;28;45448;-69
2023/12/28 11:02:58;;;;;;;;;6.00;5.00;;;;;12.84;68.27;101072.06;5020844;28;45337;-70
2023/12/28 11:05:24;;;;;;;;;5.25;3.75;;;;;12.86;68.35;101073.72;5021062;28;46320;-70
2023/12/28 11:07:53;;;;;;;;;6.00;3.75;;;;;12.92;68.25;101059.53;5038443;28;45223;-71
2023/12/28 11:10:19;;;;;;;;;8.75;6.00;;;;;12.97;68.08;101059.41;5017801;28;45417;-70
2023/12/28 11:12:45;;;;;;;;;4.75;4.50;;;;;12.93;67.39;101049.91;5010822;28;46015;-70
2023/12/28 11:15:11;;;;;;;;;6.50;5.00;;;;;12.86;67.98;101039.56;5021316;28;45483;-70
2023/12/28 11:17:37;;;;;;;;;7.50;7.00;;;;;12.87;67.46;101045.69;5018220;28;45433;-70